sensor_id;sensor_type;location;lat;lon;timestamp;temperature;humidity
45108;DHT22;30869;51.188;6.556;2022-10-16T00:00:56;13.70;99.90
45108;DHT22;30869;51.188;6.556;2022-10-16T00:03:22;13.60;99.90
45108;DHT22;30869;51.188;6.556;2022-10-16T00:05:48;13.60;99.90
45108;DHT22;30869;51.188;6.556;2022-10-16T00:08:14;13.60;99.90
45108;DHT22;30869;51.188;6.556;2022-10-16T00:10:40;13.80;99.90
45108;DHT22;30869;51.188;6.556;2022-10-16T00:13:06;13.70;99.90
45108;DHT22;30869;51.188;6.556;2022-10-16T00:15:36;13.60;99.90
45108;DHT22;30869;51.188;6.556;2022-10-16T00:18:04;13.70;99.90
45108;DHT22;30869;51.188;6.556;2022-10-16T00:20:30;13.70;99.90
45108;DHT22;30869;51.188;6.556;2022-10-16T00:22:59;13.70;99.90
45108;DHT22;30869;51.188;6.556;2022-10-16T00:25:24;13.70;99.90
45108;DHT22;30869;51.188;6.556;2022-10-16T00:27:50;13.70;99.90
45108;DHT22;30869;51.188;6.556;2022-10-16T00:30:16;13.70;99.90
45108;DHT22;30869;51.188;6.556;2022-10-16T00:32:42;13.60;99.90
45108;DHT22;30869;51.188;6.556;2022-10-16T00:37:56;13.60;99.90
45108;DHT22;30869;51.188;6.556;2022-10-16T00:40:24;13.50;99.90
45108;DHT22;30869;51.188;6.556;2022-10-16T00:42:50;13.50;99.90
45108;DHT22;30869;51.188;6.556;2022-10-16T00:45:16;13.40;99.90
45108;DHT22;30869;51.188;6.556;2022-10-16T00:48:01;13.40;99.90
45108;DHT22;30869;51.188;6.556;2022-10-16T00:50:33;13.30;99.90
45108;DHT22;30869;51.188;6.556;2022-10-16T00:53:00;13.40;99.90
45108;DHT22;30869;51.188;6.556;2022-10-16T00:55:27;13.40;99.90
45108;DHT22;30869;51.188;6.556;2022-10-16T00:57:56;13.40;99.90
45108;DHT22;30869;51.188;6.556;2022-10-16T01:00:25;13.50;99.90
45108;DHT22;30869;51.188;6.556;2022-10-16T01:02:57;13.40;99.90
45108;DHT22;30869;51.188;6.556;2022-10-16T01:05:30;13.40;99.90
45108;DHT22;30869;51.188;6.556;2022-10-16T01:08:04;13.30;99.90
45108;DHT22;30869;51.188;6.556;2022-10-16T01:10:44;13.40;99.90
45108;DHT22;30869;51.188;6.556;2022-10-16T01:13:21;13.40;99.90
45108;DHT22;30869;51.188;6.556;2022-10-16T01:16:02;13.40;99.90
45108;DHT22;30869;51.188;6.556;2022-10-16T01:18:52;13.40;99.90
45108;DHT22;30869;51.188;6.556;2022-10-16T01:21:28;13.30;99.90
45108;DHT22;30869;51.188;6.556;2022-10-16T01:32:41;13.40;99.90
45108;DHT22;30869;51.188;6.556;2022-10-16T01:35:47;13.40;99.90
45108;DHT22;30869;51.188;6.556;2022-10-16T01:38:40;13.30;99.90
45108;DHT22;30869;51.188;6.556;2022-10-16T01:41:15;13.40;99.90
45108;DHT22;30869;51.188;6.556;2022-10-16T01:43:50;13.40;99.90
45108;DHT22;30869;51.188;6.556;2022-10-16T01:46:20;13.40;99.90
45108;DHT22;30869;51.188;6.556;2022-10-16T01:48:48;13.40;99.90
45108;DHT22;30869;51.188;6.556;2022-10-16T01:51:16;13.40;99.90
45108;DHT22;30869;51.188;6.556;2022-10-16T01:53:48;13.40;99.90
45108;DHT22;30869;51.188;6.556;2022-10-16T01:56:15;13.60;99.90
45108;DHT22;30869;51.188;6.556;2022-10-16T01:58:46;13.50;99.90
45108;DHT22;30869;51.188;6.556;2022-10-16T02:01:15;13.50;99.90
45108;DHT22;30869;51.188;6.556;2022-10-16T02:03:42;13.50;99.90
45108;DHT22;30869;51.188;6.556;2022-10-16T02:06:12;13.50;99.90
45108;DHT22;30869;51.188;6.556;2022-10-16T02:08:38;13.50;99.90
45108;DHT22;30869;51.188;6.556;2022-10-16T02:11:06;13.40;99.90
45108;DHT22;30869;51.188;6.556;2022-10-16T02:13:48;13.40;99.90
45108;DHT22;30869;51.188;6.556;2022-10-16T02:16:16;13.50;99.90
45108;DHT22;30869;51.188;6.556;2022-10-16T02:18:43;13.40;99.90
45108;DHT22;30869;51.188;6.556;2022-10-16T02:21:23;13.40;99.90
45108;DHT22;30869;51.188;6.556;2022-10-16T02:24:11;13.40;99.90
45108;DHT22;30869;51.188;6.556;2022-10-16T02:26:51;13.40;99.90
45108;DHT22;30869;51.188;6.556;2022-10-16T02:29:22;13.30;99.90
45108;DHT22;30869;51.188;6.556;2022-10-16T02:31:51;13.40;99.90
45108;DHT22;30869;51.188;6.556;2022-10-16T02:34:19;13.40;99.90
45108;DHT22;30869;51.188;6.556;2022-10-16T02:36:48;13.40;99.90
45108;DHT22;30869;51.188;6.556;2022-10-16T02:39:15;13.30;99.90
45108;DHT22;30869;51.188;6.556;2022-10-16T02:41:42;13.40;99.90
45108;DHT22;30869;51.188;6.556;2022-10-16T02:44:08;13.40;99.90
45108;DHT22;30869;51.188;6.556;2022-10-16T02:46:34;13.40;99.90
45108;DHT22;30869;51.188;6.556;2022-10-16T02:49:00;13.40;99.90
45108;DHT22;30869;51.188;6.556;2022-10-16T02:51:26;13.50;99.90
45108;DHT22;30869;51.188;6.556;2022-10-16T02:53:52;13.50;99.90
45108;DHT22;30869;51.188;6.556;2022-10-16T02:56:18;13.60;99.90
45108;DHT22;30869;51.188;6.556;2022-10-16T02:58:44;13.50;99.90
45108;DHT22;30869;51.188;6.556;2022-10-16T03:01:11;13.40;99.90
45108;DHT22;30869;51.188;6.556;2022-10-16T03:03:38;13.40;99.90
45108;DHT22;30869;51.188;6.556;2022-10-16T03:06:06;13.40;99.90
45108;DHT22;30869;51.188;6.556;2022-10-16T03:08:31;13.40;99.90
45108;DHT22;30869;51.188;6.556;2022-10-16T03:10:57;13.30;99.90
45108;DHT22;30869;51.188;6.556;2022-10-16T03:13:23;13.40;99.90
45108;DHT22;30869;51.188;6.556;2022-10-16T03:15:49;13.30;99.90
45108;DHT22;30869;51.188;6.556;2022-10-16T03:18:15;13.40;99.90
45108;DHT22;30869;51.188;6.556;2022-10-16T03:20:44;13.40;99.90
45108;DHT22;30869;51.188;6.556;2022-10-16T03:23:10;13.40;99.90
45108;DHT22;30869;51.188;6.556;2022-10-16T03:25:36;13.40;99.90
45108;DHT22;30869;51.188;6.556;2022-10-16T03:28:03;13.30;99.90
45108;DHT22;30869;51.188;6.556;2022-10-16T03:30:29;13.30;99.90
45108;DHT22;30869;51.188;6.556;2022-10-16T03:32:55;13.40;99.90
45108;DHT22;30869;51.188;6.556;2022-10-16T03:35:22;13.30;99.90
45108;DHT22;30869;51.188;6.556;2022-10-16T03:37:48;13.20;99.90
45108;DHT22;30869;51.188;6.556;2022-10-16T03:40:14;13.20;99.90
45108;DHT22;30869;51.188;6.556;2022-10-16T03:42:42;13.40;99.90
45108;DHT22;30869;51.188;6.556;2022-10-16T03:45:08;13.20;99.90
45108;DHT22;30869;51.188;6.556;2022-10-16T03:47:34;13.20;99.90
45108;DHT22;30869;51.188;6.556;2022-10-16T03:50:00;13.20;99.90
45108;DHT22;30869;51.188;6.556;2022-10-16T03:52:27;13.20;99.90
45108;DHT22;30869;51.188;6.556;2022-10-16T03:54:53;13.10;99.90
45108;DHT22;30869;51.188;6.556;2022-10-16T03:57:18;13.10;99.90
45108;DHT22;30869;51.188;6.556;2022-10-16T03:59:46;13.10;99.90
45108;DHT22;30869;51.188;6.556;2022-10-16T04:02:12;13.10;99.90
45108;DHT22;30869;51.188;6.556;2022-10-16T04:04:38;13.10;99.90
45108;DHT22;30869;51.188;6.556;2022-10-16T04:07:04;13.10;99.90
45108;DHT22;30869;51.188;6.556;2022-10-16T04:09:31;13.00;99.90
45108;DHT22;30869;51.188;6.556;2022-10-16T04:11:56;13.10;99.90
45108;DHT22;30869;51.188;6.556;2022-10-16T04:14:22;13.00;99.90
45108;DHT22;30869;51.188;6.556;2022-10-16T04:16:48;13.10;99.90
45108;DHT22;30869;51.188;6.556;2022-10-16T04:19:14;13.00;99.90
45108;DHT22;30869;51.188;6.556;2022-10-16T04:21:40;13.00;99.90
45108;DHT22;30869;51.188;6.556;2022-10-16T04:24:06;13.00;99.90
45108;DHT22;30869;51.188;6.556;2022-10-16T04:26:32;12.90;99.90
45108;DHT22;30869;51.188;6.556;2022-10-16T04:28:59;13.00;99.90
45108;DHT22;30869;51.188;6.556;2022-10-16T04:31:25;13.00;99.90
45108;DHT22;30869;51.188;6.556;2022-10-16T04:33:52;13.00;99.90
45108;DHT22;30869;51.188;6.556;2022-10-16T04:36:17;13.00;99.90
45108;DHT22;30869;51.188;6.556;2022-10-16T04:38:43;12.90;99.90
45108;DHT22;30869;51.188;6.556;2022-10-16T04:41:09;12.90;99.90
45108;DHT22;30869;51.188;6.556;2022-10-16T04:43:35;13.00;99.90
45108;DHT22;30869;51.188;6.556;2022-10-16T04:46:01;12.90;99.90
45108;DHT22;30869;51.188;6.556;2022-10-16T04:48:30;12.90;99.90
45108;DHT22;30869;51.188;6.556;2022-10-16T04:50:56;12.90;99.90
45108;DHT22;30869;51.188;6.556;2022-10-16T04:53:23;13.00;99.90
45108;DHT22;30869;51.188;6.556;2022-10-16T04:55:49;12.90;99.90
45108;DHT22;30869;51.188;6.556;2022-10-16T04:58:15;12.90;99.90
45108;DHT22;30869;51.188;6.556;2022-10-16T05:00:41;12.90;99.90
45108;DHT22;30869;51.188;6.556;2022-10-16T05:03:07;12.80;99.90
45108;DHT22;30869;51.188;6.556;2022-10-16T05:05:35;12.80;99.90
45108;DHT22;30869;51.188;6.556;2022-10-16T05:08:01;12.80;99.90
45108;DHT22;30869;51.188;6.556;2022-10-16T05:10:27;12.80;99.90
45108;DHT22;30869;51.188;6.556;2022-10-16T05:12:53;12.90;99.90
45108;DHT22;30869;51.188;6.556;2022-10-16T05:15:19;12.90;99.90
45108;DHT22;30869;51.188;6.556;2022-10-16T05:17:45;12.80;99.90
45108;DHT22;30869;51.188;6.556;2022-10-16T05:20:12;12.90;99.90
45108;DHT22;30869;51.188;6.556;2022-10-16T05:22:37;13.00;99.90
45108;DHT22;30869;51.188;6.556;2022-10-16T05:25:04;12.90;99.90
45108;DHT22;30869;51.188;6.556;2022-10-16T05:27:30;13.00;99.90
45108;DHT22;30869;51.188;6.556;2022-10-16T05:29:59;12.90;99.90
45108;DHT22;30869;51.188;6.556;2022-10-16T05:32:25;12.80;99.90
45108;DHT22;30869;51.188;6.556;2022-10-16T05:34:51;12.90;99.90
45108;DHT22;30869;51.188;6.556;2022-10-16T05:37:17;12.80;99.90
45108;DHT22;30869;51.188;6.556;2022-10-16T05:39:43;12.80;99.90
45108;DHT22;30869;51.188;6.556;2022-10-16T05:42:09;12.90;99.90
45108;DHT22;30869;51.188;6.556;2022-10-16T05:44:35;12.90;99.90
45108;DHT22;30869;51.188;6.556;2022-10-16T05:47:01;12.80;99.90
45108;DHT22;30869;51.188;6.556;2022-10-16T05:49:27;12.90;99.90
45108;DHT22;30869;51.188;6.556;2022-10-16T05:51:53;12.90;99.90
45108;DHT22;30869;51.188;6.556;2022-10-16T05:54:19;12.80;99.90
45108;DHT22;30869;51.188;6.556;2022-10-16T05:56:45;12.90;99.90
45108;DHT22;30869;51.188;6.556;2022-10-16T05:59:10;12.80;99.90
45108;DHT22;30869;51.188;6.556;2022-10-16T06:01:36;12.80;99.90
45108;DHT22;30869;51.188;6.556;2022-10-16T06:04:02;12.80;99.90
45108;DHT22;30869;51.188;6.556;2022-10-16T06:06:28;12.80;99.90
45108;DHT22;30869;51.188;6.556;2022-10-16T06:08:55;12.80;99.90
45108;DHT22;30869;51.188;6.556;2022-10-16T06:11:23;12.80;99.90
45108;DHT22;30869;51.188;6.556;2022-10-16T06:13:56;12.80;99.90
45108;DHT22;30869;51.188;6.556;2022-10-16T06:16:23;12.90;99.90
45108;DHT22;30869;51.188;6.556;2022-10-16T06:18:53;12.80;99.90
45108;DHT22;30869;51.188;6.556;2022-10-16T06:21:22;12.90;99.90
45108;DHT22;30869;51.188;6.556;2022-10-16T06:23:50;12.90;99.90
45108;DHT22;30869;51.188;6.556;2022-10-16T06:26:18;12.90;99.90
45108;DHT22;30869;51.188;6.556;2022-10-16T06:28:45;12.90;99.90
45108;DHT22;30869;51.188;6.556;2022-10-16T06:31:12;12.90;99.90
45108;DHT22;30869;51.188;6.556;2022-10-16T06:33:38;13.00;99.90
45108;DHT22;30869;51.188;6.556;2022-10-16T06:36:12;12.90;99.90
45108;DHT22;30869;51.188;6.556;2022-10-16T06:38:38;12.90;99.90
45108;DHT22;30869;51.188;6.556;2022-10-16T06:41:05;13.00;99.90
45108;DHT22;30869;51.188;6.556;2022-10-16T06:43:32;13.00;99.90
45108;DHT22;30869;51.188;6.556;2022-10-16T06:46:01;13.00;99.90
45108;DHT22;30869;51.188;6.556;2022-10-16T06:48:27;13.10;99.90
45108;DHT22;30869;51.188;6.556;2022-10-16T06:53:23;13.00;99.90
45108;DHT22;30869;51.188;6.556;2022-10-16T06:55:49;13.10;99.90
45108;DHT22;30869;51.188;6.556;2022-10-16T06:58:15;13.00;99.90
45108;DHT22;30869;51.188;6.556;2022-10-16T07:00:41;13.00;99.90
45108;DHT22;30869;51.188;6.556;2022-10-16T07:03:07;12.90;99.90
45108;DHT22;30869;51.188;6.556;2022-10-16T07:05:40;12.90;99.90
45108;DHT22;30869;51.188;6.556;2022-10-16T07:08:06;12.90;99.90
45108;DHT22;30869;51.188;6.556;2022-10-16T07:10:33;12.80;99.90
45108;DHT22;30869;51.188;6.556;2022-10-16T07:12:59;12.80;99.90
45108;DHT22;30869;51.188;6.556;2022-10-16T07:15:26;12.80;99.90
45108;DHT22;30869;51.188;6.556;2022-10-16T07:17:52;12.80;99.90
45108;DHT22;30869;51.188;6.556;2022-10-16T07:20:19;12.80;99.90
45108;DHT22;30869;51.188;6.556;2022-10-16T07:22:44;12.80;99.90
45108;DHT22;30869;51.188;6.556;2022-10-16T07:25:11;12.80;99.90
45108;DHT22;30869;51.188;6.556;2022-10-16T07:27:37;12.80;99.90
45108;DHT22;30869;51.188;6.556;2022-10-16T07:30:04;12.80;99.90
45108;DHT22;30869;51.188;6.556;2022-10-16T07:32:30;12.80;99.90
45108;DHT22;30869;51.188;6.556;2022-10-16T07:34:56;12.90;99.90
45108;DHT22;30869;51.188;6.556;2022-10-16T07:37:22;12.90;99.90
45108;DHT22;30869;51.188;6.556;2022-10-16T07:39:48;12.90;99.90
45108;DHT22;30869;51.188;6.556;2022-10-16T07:42:15;12.80;99.90
45108;DHT22;30869;51.188;6.556;2022-10-16T07:44:41;12.90;99.90
45108;DHT22;30869;51.188;6.556;2022-10-16T07:47:11;13.00;99.90
45108;DHT22;30869;51.188;6.556;2022-10-16T07:49:37;12.90;99.90
45108;DHT22;30869;51.188;6.556;2022-10-16T07:52:03;13.00;99.90
45108;DHT22;30869;51.188;6.556;2022-10-16T07:54:29;13.10;99.90
45108;DHT22;30869;51.188;6.556;2022-10-16T07:56:55;13.20;99.90
45108;DHT22;30869;51.188;6.556;2022-10-16T07:59:21;13.30;99.90
45108;DHT22;30869;51.188;6.556;2022-10-16T08:01:49;13.20;99.90
45108;DHT22;30869;51.188;6.556;2022-10-16T08:04:14;13.20;99.90
45108;DHT22;30869;51.188;6.556;2022-10-16T08:06:40;13.30;99.90
45108;DHT22;30869;51.188;6.556;2022-10-16T08:09:07;13.30;99.90
45108;DHT22;30869;51.188;6.556;2022-10-16T08:11:33;13.40;99.90
45108;DHT22;30869;51.188;6.556;2022-10-16T08:13:59;13.40;99.90
45108;DHT22;30869;51.188;6.556;2022-10-16T08:16:25;13.50;99.90
45108;DHT22;30869;51.188;6.556;2022-10-16T08:18:51;13.70;99.90
45108;DHT22;30869;51.188;6.556;2022-10-16T08:21:19;13.90;99.90
45108;DHT22;30869;51.188;6.556;2022-10-16T08:23:46;14.20;99.90
45108;DHT22;30869;51.188;6.556;2022-10-16T08:26:12;14.60;99.90
45108;DHT22;30869;51.188;6.556;2022-10-16T08:28:38;14.70;99.90
45108;DHT22;30869;51.188;6.556;2022-10-16T08:31:12;14.70;99.90
45108;DHT22;30869;51.188;6.556;2022-10-16T08:33:41;14.80;99.90
45108;DHT22;30869;51.188;6.556;2022-10-16T08:36:08;14.80;99.90
45108;DHT22;30869;51.188;6.556;2022-10-16T08:38:34;14.80;99.90
45108;DHT22;30869;51.188;6.556;2022-10-16T08:44:14;14.30;99.90
45108;DHT22;30869;51.188;6.556;2022-10-16T08:46:54;14.20;99.90
45108;DHT22;30869;51.188;6.556;2022-10-16T08:49:30;14.10;99.90
45108;DHT22;30869;51.188;6.556;2022-10-16T08:51:59;14.10;99.90
45108;DHT22;30869;51.188;6.556;2022-10-16T08:54:32;14.20;99.90
45108;DHT22;30869;51.188;6.556;2022-10-16T08:57:17;14.30;99.90
45108;DHT22;30869;51.188;6.556;2022-10-16T08:59:45;14.30;99.90
45108;DHT22;30869;51.188;6.556;2022-10-16T09:02:31;14.60;99.90
45108;DHT22;30869;51.188;6.556;2022-10-16T09:16:22;14.50;99.90
45108;DHT22;30869;51.188;6.556;2022-10-16T09:21:41;14.50;99.90
45108;DHT22;30869;51.188;6.556;2022-10-16T09:24:15;14.50;99.90
45108;DHT22;30869;51.188;6.556;2022-10-16T09:26:46;14.60;99.90
45108;DHT22;30869;51.188;6.556;2022-10-16T09:29:51;14.80;99.90
45108;DHT22;30869;51.188;6.556;2022-10-16T09:32:24;14.80;99.90
45108;DHT22;30869;51.188;6.556;2022-10-16T09:39:41;14.80;99.90
45108;DHT22;30869;51.188;6.556;2022-10-16T09:50:13;15.00;99.90
45108;DHT22;30869;51.188;6.556;2022-10-16T09:53:07;15.00;99.90
45108;DHT22;30869;51.188;6.556;2022-10-16T09:59:11;15.20;99.90
45108;DHT22;30869;51.188;6.556;2022-10-16T10:01:49;15.30;99.90
45108;DHT22;30869;51.188;6.556;2022-10-16T10:04:22;15.40;99.90
45108;DHT22;30869;51.188;6.556;2022-10-16T10:06:53;15.30;99.90
45108;DHT22;30869;51.188;6.556;2022-10-16T10:14:22;14.80;99.90
45108;DHT22;30869;51.188;6.556;2022-10-16T10:16:49;14.70;99.90
45108;DHT22;30869;51.188;6.556;2022-10-16T10:19:22;15.10;99.90
45108;DHT22;30869;51.188;6.556;2022-10-16T10:21:49;15.10;99.90
45108;DHT22;30869;51.188;6.556;2022-10-16T10:24:18;15.10;99.90
45108;DHT22;30869;51.188;6.556;2022-10-16T10:27:09;15.00;99.90
45108;DHT22;30869;51.188;6.556;2022-10-16T10:35:17;14.80;99.90
45108;DHT22;30869;51.188;6.556;2022-10-16T10:38:21;14.80;99.90
45108;DHT22;30869;51.188;6.556;2022-10-16T10:40:56;14.70;99.90
45108;DHT22;30869;51.188;6.556;2022-10-16T10:43:51;14.60;99.90
45108;DHT22;30869;51.188;6.556;2022-10-16T10:55:02;14.80;99.90
45108;DHT22;30869;51.188;6.556;2022-10-16T11:05:45;14.80;99.90
45108;DHT22;30869;51.188;6.556;2022-10-16T11:11:47;14.90;99.90
45108;DHT22;30869;51.188;6.556;2022-10-16T11:14:53;15.00;99.90
45108;DHT22;30869;51.188;6.556;2022-10-16T11:17:40;15.10;99.90
45108;DHT22;30869;51.188;6.556;2022-10-16T11:22:39;15.00;99.90
45108;DHT22;30869;51.188;6.556;2022-10-16T11:25:26;14.80;99.90
45108;DHT22;30869;51.188;6.556;2022-10-16T11:31:47;15.10;99.90
45108;DHT22;30869;51.188;6.556;2022-10-16T11:34:12;15.20;99.90
45108;DHT22;30869;51.188;6.556;2022-10-16T11:36:50;15.20;99.90
45108;DHT22;30869;51.188;6.556;2022-10-16T11:39:23;15.30;99.90
45108;DHT22;30869;51.188;6.556;2022-10-16T11:41:51;15.80;99.90
45108;DHT22;30869;51.188;6.556;2022-10-16T11:50:28;15.30;99.90
45108;DHT22;30869;51.188;6.556;2022-10-16T11:55:40;15.20;99.90
45108;DHT22;30869;51.188;6.556;2022-10-16T11:59:14;15.10;99.90
45108;DHT22;30869;51.188;6.556;2022-10-16T12:04:09;15.20;99.90
45108;DHT22;30869;51.188;6.556;2022-10-16T12:09:29;15.40;99.90
45108;DHT22;30869;51.188;6.556;2022-10-16T12:11:56;15.30;99.90
45108;DHT22;30869;51.188;6.556;2022-10-16T12:17:35;15.20;99.90
45108;DHT22;30869;51.188;6.556;2022-10-16T12:20:18;15.20;99.90
45108;DHT22;30869;51.188;6.556;2022-10-16T12:22:54;15.50;99.90
45108;DHT22;30869;51.188;6.556;2022-10-16T12:27:59;15.80;99.90
45108;DHT22;30869;51.188;6.556;2022-10-16T12:30:27;15.40;99.90
45108;DHT22;30869;51.188;6.556;2022-10-16T12:33:18;15.40;99.90
45108;DHT22;30869;51.188;6.556;2022-10-16T12:35:46;15.80;99.90
45108;DHT22;30869;51.188;6.556;2022-10-16T12:38:17;16.10;99.90
45108;DHT22;30869;51.188;6.556;2022-10-16T12:40:45;16.00;99.90
45108;DHT22;30869;51.188;6.556;2022-10-16T12:48:29;15.70;99.90
45108;DHT22;30869;51.188;6.556;2022-10-16T12:50:56;15.50;99.90
45108;DHT22;30869;51.188;6.556;2022-10-16T12:53:26;15.70;99.90
45108;DHT22;30869;51.188;6.556;2022-10-16T12:56:13;15.70;99.90
45108;DHT22;30869;51.188;6.556;2022-10-16T12:58:58;15.70;99.90
45108;DHT22;30869;51.188;6.556;2022-10-16T13:01:52;15.60;99.90
45108;DHT22;30869;51.188;6.556;2022-10-16T13:04:43;15.30;99.90
45108;DHT22;30869;51.188;6.556;2022-10-16T13:23:44;15.40;99.90
45108;DHT22;30869;51.188;6.556;2022-10-16T13:26:26;15.50;99.90
45108;DHT22;30869;51.188;6.556;2022-10-16T13:29:05;15.70;99.90
45108;DHT22;30869;51.188;6.556;2022-10-16T13:31:53;16.10;99.90
45108;DHT22;30869;51.188;6.556;2022-10-16T13:34:28;15.90;99.90
45108;DHT22;30869;51.188;6.556;2022-10-16T13:37:15;15.90;99.90
45108;DHT22;30869;51.188;6.556;2022-10-16T13:39:47;15.90;99.90
45108;DHT22;30869;51.188;6.556;2022-10-16T13:42:28;15.90;99.90
45108;DHT22;30869;51.188;6.556;2022-10-16T13:44:55;15.60;99.90
45108;DHT22;30869;51.188;6.556;2022-10-16T13:47:29;15.70;99.90
45108;DHT22;30869;51.188;6.556;2022-10-16T13:50:09;16.00;99.90
45108;DHT22;30869;51.188;6.556;2022-10-16T13:52:39;16.10;99.90
45108;DHT22;30869;51.188;6.556;2022-10-16T13:55:18;16.10;99.90
45108;DHT22;30869;51.188;6.556;2022-10-16T13:57:49;16.30;99.90
45108;DHT22;30869;51.188;6.556;2022-10-16T14:00:28;15.80;99.90
45108;DHT22;30869;51.188;6.556;2022-10-16T14:03:21;15.80;99.90
45108;DHT22;30869;51.188;6.556;2022-10-16T14:06:12;15.70;99.90
45108;DHT22;30869;51.188;6.556;2022-10-16T14:11:23;15.70;99.90
45108;DHT22;30869;51.188;6.556;2022-10-16T14:13:51;16.00;99.90
45108;DHT22;30869;51.188;6.556;2022-10-16T14:16:23;16.00;99.90
45108;DHT22;30869;51.188;6.556;2022-10-16T14:19:00;15.80;99.90
45108;DHT22;30869;51.188;6.556;2022-10-16T14:21:27;15.70;99.90
45108;DHT22;30869;51.188;6.556;2022-10-16T14:23:57;15.70;99.90
45108;DHT22;30869;51.188;6.556;2022-10-16T14:26:27;15.70;99.90
45108;DHT22;30869;51.188;6.556;2022-10-16T14:29:14;15.60;99.90
45108;DHT22;30869;51.188;6.556;2022-10-16T14:31:40;15.50;99.90
45108;DHT22;30869;51.188;6.556;2022-10-16T14:34:27;15.70;99.90
45108;DHT22;30869;51.188;6.556;2022-10-16T14:36:54;15.60;99.90
45108;DHT22;30869;51.188;6.556;2022-10-16T14:39:25;15.60;99.90
45108;DHT22;30869;51.188;6.556;2022-10-16T14:41:55;15.60;99.90
45108;DHT22;30869;51.188;6.556;2022-10-16T14:44:33;15.60;99.90
45108;DHT22;30869;51.188;6.556;2022-10-16T14:47:08;15.70;99.90
45108;DHT22;30869;51.188;6.556;2022-10-16T14:49:43;15.70;99.90
45108;DHT22;30869;51.188;6.556;2022-10-16T14:52:12;15.60;99.90
45108;DHT22;30869;51.188;6.556;2022-10-16T14:54:41;15.70;99.90
45108;DHT22;30869;51.188;6.556;2022-10-16T14:57:24;15.80;99.90
45108;DHT22;30869;51.188;6.556;2022-10-16T15:00:27;16.30;99.90
45108;DHT22;30869;51.188;6.556;2022-10-16T15:02:53;16.20;99.90
45108;DHT22;30869;51.188;6.556;2022-10-16T15:05:23;16.20;99.90
45108;DHT22;30869;51.188;6.556;2022-10-16T15:07:51;16.20;99.90
45108;DHT22;30869;51.188;6.556;2022-10-16T15:10:25;16.00;99.90
45108;DHT22;30869;51.188;6.556;2022-10-16T15:12:51;16.00;99.90
45108;DHT22;30869;51.188;6.556;2022-10-16T15:17:52;15.80;99.90
45108;DHT22;30869;51.188;6.556;2022-10-16T15:20:22;15.70;99.90
45108;DHT22;30869;51.188;6.556;2022-10-16T15:23:30;15.40;99.90
45108;DHT22;30869;51.188;6.556;2022-10-16T15:25:53;15.40;99.90
45108;DHT22;30869;51.188;6.556;2022-10-16T15:28:19;15.40;99.90
45108;DHT22;30869;51.188;6.556;2022-10-16T15:30:53;15.50;99.90
45108;DHT22;30869;51.188;6.556;2022-10-16T15:33:22;15.40;99.90
45108;DHT22;30869;51.188;6.556;2022-10-16T15:35:49;15.30;99.90
45108;DHT22;30869;51.188;6.556;2022-10-16T15:38:16;15.40;99.90
45108;DHT22;30869;51.188;6.556;2022-10-16T15:40:45;15.40;99.90
45108;DHT22;30869;51.188;6.556;2022-10-16T15:43:11;15.20;99.90
45108;DHT22;30869;51.188;6.556;2022-10-16T15:45:37;15.30;99.90
45108;DHT22;30869;51.188;6.556;2022-10-16T15:48:03;15.20;99.90
45108;DHT22;30869;51.188;6.556;2022-10-16T15:50:30;15.20;99.90
45108;DHT22;30869;51.188;6.556;2022-10-16T15:52:57;15.30;99.90
45108;DHT22;30869;51.188;6.556;2022-10-16T15:55:23;15.20;99.90
45108;DHT22;30869;51.188;6.556;2022-10-16T15:57:49;15.10;99.90
45108;DHT22;30869;51.188;6.556;2022-10-16T16:00:17;15.40;99.90
45108;DHT22;30869;51.188;6.556;2022-10-16T16:02:43;15.30;99.90
45108;DHT22;30869;51.188;6.556;2022-10-16T16:05:10;15.20;99.90
45108;DHT22;30869;51.188;6.556;2022-10-16T16:07:38;15.10;99.90
45108;DHT22;30869;51.188;6.556;2022-10-16T16:10:08;15.10;99.90
45108;DHT22;30869;51.188;6.556;2022-10-16T16:12:35;15.10;99.90
45108;DHT22;30869;51.188;6.556;2022-10-16T16:15:01;15.10;99.90
45108;DHT22;30869;51.188;6.556;2022-10-16T16:17:27;15.10;99.90
45108;DHT22;30869;51.188;6.556;2022-10-16T16:19:52;15.00;99.90
45108;DHT22;30869;51.188;6.556;2022-10-16T16:22:18;15.20;99.90
45108;DHT22;30869;51.188;6.556;2022-10-16T16:24:44;15.20;99.90
45108;DHT22;30869;51.188;6.556;2022-10-16T16:27:12;15.20;99.90
45108;DHT22;30869;51.188;6.556;2022-10-16T16:29:39;15.20;99.90
45108;DHT22;30869;51.188;6.556;2022-10-16T16:32:05;15.10;99.90
45108;DHT22;30869;51.188;6.556;2022-10-16T16:34:30;15.10;99.90
45108;DHT22;30869;51.188;6.556;2022-10-16T16:36:56;15.10;99.90
45108;DHT22;30869;51.188;6.556;2022-10-16T16:39:23;15.00;99.90
45108;DHT22;30869;51.188;6.556;2022-10-16T16:41:49;15.10;99.90
45108;DHT22;30869;51.188;6.556;2022-10-16T16:44:15;15.30;99.90
45108;DHT22;30869;51.188;6.556;2022-10-16T16:46:43;15.10;99.90
45108;DHT22;30869;51.188;6.556;2022-10-16T16:49:11;15.10;99.90
45108;DHT22;30869;51.188;6.556;2022-10-16T16:51:37;15.30;99.90
45108;DHT22;30869;51.188;6.556;2022-10-16T16:54:03;15.00;99.90
45108;DHT22;30869;51.188;6.556;2022-10-16T16:56:30;14.80;99.90
45108;DHT22;30869;51.188;6.556;2022-10-16T16:58:56;14.90;99.90
45108;DHT22;30869;51.188;6.556;2022-10-16T17:01:24;15.00;99.90
45108;DHT22;30869;51.188;6.556;2022-10-16T17:03:53;14.90;99.90
45108;DHT22;30869;51.188;6.556;2022-10-16T17:06:20;15.00;99.90
45108;DHT22;30869;51.188;6.556;2022-10-16T17:08:47;15.00;99.90
45108;DHT22;30869;51.188;6.556;2022-10-16T17:11:16;15.00;99.90
45108;DHT22;30869;51.188;6.556;2022-10-16T17:13:43;15.10;99.90
45108;DHT22;30869;51.188;6.556;2022-10-16T17:16:09;15.10;99.90
45108;DHT22;30869;51.188;6.556;2022-10-16T17:18:36;15.00;99.90
45108;DHT22;30869;51.188;6.556;2022-10-16T17:21:05;15.00;99.90
45108;DHT22;30869;51.188;6.556;2022-10-16T17:23:33;14.90;99.90
45108;DHT22;30869;51.188;6.556;2022-10-16T17:26:05;14.90;99.90
45108;DHT22;30869;51.188;6.556;2022-10-16T17:28:31;14.90;99.90
45108;DHT22;30869;51.188;6.556;2022-10-16T17:31:14;14.90;99.90
45108;DHT22;30869;51.188;6.556;2022-10-16T17:33:40;14.90;99.90
45108;DHT22;30869;51.188;6.556;2022-10-16T17:36:07;14.90;99.90
45108;DHT22;30869;51.188;6.556;2022-10-16T17:38:33;14.80;99.90
45108;DHT22;30869;51.188;6.556;2022-10-16T17:41:08;14.90;99.90
45108;DHT22;30869;51.188;6.556;2022-10-16T17:43:36;14.90;99.90
45108;DHT22;30869;51.188;6.556;2022-10-16T17:46:02;14.80;99.90
45108;DHT22;30869;51.188;6.556;2022-10-16T17:48:29;14.90;99.90
45108;DHT22;30869;51.188;6.556;2022-10-16T17:50:54;14.80;99.90
45108;DHT22;30869;51.188;6.556;2022-10-16T17:53:20;14.70;99.90
45108;DHT22;30869;51.188;6.556;2022-10-16T17:55:46;14.80;99.90
45108;DHT22;30869;51.188;6.556;2022-10-16T17:58:12;14.80;99.90
45108;DHT22;30869;51.188;6.556;2022-10-16T18:00:38;14.90;99.90